sensor_id;sensor_type;location;lat;lon;timestamp;temperature;humidity
18882;DHT22;9573;50.948;11.600;2023-01-04T05:22:32;5.00;99.90
18882;DHT22;9573;50.948;11.600;2023-01-04T05:24:59;5.10;99.90
18882;DHT22;9573;50.948;11.600;2023-01-04T05:27:26;5.20;99.90
18882;DHT22;9573;50.948;11.600;2023-01-04T05:29:53;5.40;99.90
18882;DHT22;9573;50.948;11.600;2023-01-04T05:32:38;4.70;99.90
18882;DHT22;9573;50.948;11.600;2023-01-04T05:35:06;5.80;99.90
18882;DHT22;9573;50.948;11.600;2023-01-04T05:37:35;6.00;99.90
18882;DHT22;9573;50.948;11.600;2023-01-04T05:40:02;6.10;99.90
18882;DHT22;9573;50.948;11.600;2023-01-04T05:42:29;6.30;99.90
18882;DHT22;9573;50.948;11.600;2023-01-04T05:44:57;6.40;99.90
18882;DHT22;9573;50.948;11.600;2023-01-04T05:47:25;6.60;99.90
18882;DHT22;9573;50.948;11.600;2023-01-04T05:49:53;6.60;99.90
18882;DHT22;9573;50.948;11.600;2023-01-04T05:52:20;6.80;99.90
18882;DHT22;9573;50.948;11.600;2023-01-04T05:54:49;6.80;99.90
18882;DHT22;9573;50.948;11.600;2023-01-04T05:57:16;6.90;99.90
18882;DHT22;9573;50.948;11.600;2023-01-04T05:59:44;7.00;99.90
18882;DHT22;9573;50.948;11.600;2023-01-04T06:02:16;7.00;99.90
18882;DHT22;9573;50.948;11.600;2023-01-04T06:04:44;7.10;99.90
18882;DHT22;9573;50.948;11.600;2023-01-04T06:07:12;7.10;99.90
18882;DHT22;9573;50.948;11.600;2023-01-04T06:09:40;7.20;99.90
18882;DHT22;9573;50.948;11.600;2023-01-04T06:12:09;7.20;99.90
18882;DHT22;9573;50.948;11.600;2023-01-04T06:14:37;7.30;99.90
18882;DHT22;9573;50.948;11.600;2023-01-04T14:02:40;9.40;99.90
18882;DHT22;9573;50.948;11.600;2023-01-04T14:05:13;9.40;99.90
18882;DHT22;9573;50.948;11.600;2023-01-04T14:07:42;9.40;99.90
18882;DHT22;9573;50.948;11.600;2023-01-04T14:10:16;9.50;99.90
18882;DHT22;9573;50.948;11.600;2023-01-04T14:12:45;9.60;99.90
18882;DHT22;9573;50.948;11.600;2023-01-04T14:15:19;9.70;99.90
18882;DHT22;9573;50.948;11.600;2023-01-04T14:17:49;9.80;99.90
18882;DHT22;9573;50.948;11.600;2023-01-04T14:20:35;9.80;99.90
18882;DHT22;9573;50.948;11.600;2023-01-04T14:23:02;9.90;99.90
18882;DHT22;9573;50.948;11.600;2023-01-04T14:25:40;9.80;99.90
18882;DHT22;9573;50.948;11.600;2023-01-04T14:31:33;9.70;99.90
18882;DHT22;9573;50.948;11.600;2023-01-04T14:34:11;9.50;99.90
18882;DHT22;9573;50.948;11.600;2023-01-04T14:36:41;9.40;99.90
18882;DHT22;9573;50.948;11.600;2023-01-04T14:39:17;9.40;99.90
18882;DHT22;9573;50.948;11.600;2023-01-04T14:41:55;9.40;99.90
18882;DHT22;9573;50.948;11.600;2023-01-04T14:44:26;9.40;99.90
18882;DHT22;9573;50.948;11.600;2023-01-04T14:46:56;9.40;99.90
18882;DHT22;9573;50.948;11.600;2023-01-04T14:49:26;9.30;99.90
18882;DHT22;9573;50.948;11.600;2023-01-04T14:51:55;9.40;99.90
18882;DHT22;9573;50.948;11.600;2023-01-04T14:54:24;9.40;99.90
18882;DHT22;9573;50.948;11.600;2023-01-04T14:56:52;9.40;99.90
18882;DHT22;9573;50.948;11.600;2023-01-04T14:59:21;9.40;99.90
18882;DHT22;9573;50.948;11.600;2023-01-04T15:01:49;9.50;99.90
18882;DHT22;9573;50.948;11.600;2023-01-04T15:04:16;9.50;99.90
18882;DHT22;9573;50.948;11.600;2023-01-04T15:06:50;9.50;99.90
18882;DHT22;9573;50.948;11.600;2023-01-04T15:09:18;9.60;99.90
18882;DHT22;9573;50.948;11.600;2023-01-04T15:11:45;9.60;99.90
18882;DHT22;9573;50.948;11.600;2023-01-04T15:14:12;9.70;99.90
18882;DHT22;9573;50.948;11.600;2023-01-04T15:16:39;9.70;99.90
18882;DHT22;9573;50.948;11.600;2023-01-04T15:19:06;9.70;99.90
18882;DHT22;9573;50.948;11.600;2023-01-04T15:21:34;9.80;99.90
18882;DHT22;9573;50.948;11.600;2023-01-04T15:24:03;9.80;99.90
18882;DHT22;9573;50.948;11.600;2023-01-04T15:26:30;9.90;99.90
18882;DHT22;9573;50.948;11.600;2023-01-04T15:28:58;9.90;99.90
18882;DHT22;9573;50.948;11.600;2023-01-04T15:31:25;9.90;99.90
18882;DHT22;9573;50.948;11.600;2023-01-04T15:33:52;10.00;99.90
18882;DHT22;9573;50.948;11.600;2023-01-04T15:36:20;10.00;99.90
18882;DHT22;9573;50.948;11.600;2023-01-04T15:38:47;10.10;99.90
18882;DHT22;9573;50.948;11.600;2023-01-04T15:41:17;10.10;99.90
18882;DHT22;9573;50.948;11.600;2023-01-04T15:43:58;10.10;99.90
18882;DHT22;9573;50.948;11.600;2023-01-04T15:46:25;10.10;99.90
18882;DHT22;9573;50.948;11.600;2023-01-04T15:48:53;10.20;99.90
18882;DHT22;9573;50.948;11.600;2023-01-04T15:51:20;10.20;99.90
18882;DHT22;9573;50.948;11.600;2023-01-04T15:53:49;9.50;99.90
18882;DHT22;9573;50.948;11.600;2023-01-04T15:56:19;10.30;99.90
18882;DHT22;9573;50.948;11.600;2023-01-04T15:58:50;10.20;99.90
18882;DHT22;9573;50.948;11.600;2023-01-04T16:01:19;10.10;99.90
18882;DHT22;9573;50.948;11.600;2023-01-04T16:03:47;10.10;99.90
18882;DHT22;9573;50.948;11.600;2023-01-04T16:06:15;10.00;99.90
18882;DHT22;9573;50.948;11.600;2023-01-04T16:08:43;10.00;99.90
18882;DHT22;9573;50.948;11.600;2023-01-04T16:11:13;10.00;99.90
18882;DHT22;9573;50.948;11.600;2023-01-04T16:13:44;9.90;99.90
18882;DHT22;9573;50.948;11.600;2023-01-04T16:16:13;9.90;99.90
18882;DHT22;9573;50.948;11.600;2023-01-04T16:18:44;9.90;99.90
18882;DHT22;9573;50.948;11.600;2023-01-04T16:21:12;9.90;99.90
18882;DHT22;9573;50.948;11.600;2023-01-04T16:23:40;9.90;99.90
18882;DHT22;9573;50.948;11.600;2023-01-04T16:26:09;10.00;99.90
18882;DHT22;9573;50.948;11.600;2023-01-04T16:28:37;10.00;99.90
18882;DHT22;9573;50.948;11.600;2023-01-04T16:31:07;10.10;99.90
18882;DHT22;9573;50.948;11.600;2023-01-04T16:33:35;10.10;99.90
18882;DHT22;9573;50.948;11.600;2023-01-04T16:36:04;10.20;99.90
18882;DHT22;9573;50.948;11.600;2023-01-04T16:38:35;10.20;99.90
18882;DHT22;9573;50.948;11.600;2023-01-04T16:41:04;10.20;99.90
18882;DHT22;9573;50.948;11.600;2023-01-04T16:43:41;10.20;99.90
18882;DHT22;9573;50.948;11.600;2023-01-04T16:46:22;10.20;99.90
18882;DHT22;9573;50.948;11.600;2023-01-04T16:48:53;10.30;99.90
18882;DHT22;9573;50.948;11.600;2023-01-04T16:51:22;10.40;99.90
18882;DHT22;9573;50.948;11.600;2023-01-04T16:53:50;10.40;99.90
18882;DHT22;9573;50.948;11.600;2023-01-04T16:56:20;10.40;99.90
18882;DHT22;9573;50.948;11.600;2023-01-04T16:58:49;10.40;99.90
18882;DHT22;9573;50.948;11.600;2023-01-04T17:01:17;10.40;99.90
18882;DHT22;9573;50.948;11.600;2023-01-04T17:03:48;10.40;99.90
18882;DHT22;9573;50.948;11.600;2023-01-04T17:06:17;10.50;99.90
18882;DHT22;9573;50.948;11.600;2023-01-04T17:08:48;10.50;99.90
18882;DHT22;9573;50.948;11.600;2023-01-04T17:11:18;10.50;99.90
18882;DHT22;9573;50.948;11.600;2023-01-04T17:13:46;10.60;99.90
18882;DHT22;9573;50.948;11.600;2023-01-04T17:16:14;10.60;99.90
18882;DHT22;9573;50.948;11.600;2023-01-04T17:18:43;10.60;99.90
18882;DHT22;9573;50.948;11.600;2023-01-04T17:21:12;10.60;99.90
18882;DHT22;9573;50.948;11.600;2023-01-04T17:23:46;10.60;99.90
18882;DHT22;9573;50.948;11.600;2023-01-04T17:26:16;10.60;99.90
18882;DHT22;9573;50.948;11.600;2023-01-04T17:28:44;10.70;99.90
18882;DHT22;9573;50.948;11.600;2023-01-04T17:31:14;10.60;99.90
18882;DHT22;9573;50.948;11.600;2023-01-04T17:33:43;10.70;99.90
18882;DHT22;9573;50.948;11.600;2023-01-04T17:36:12;10.70;99.90
18882;DHT22;9573;50.948;11.600;2023-01-04T17:38:42;10.70;99.90
18882;DHT22;9573;50.948;11.600;2023-01-04T17:41:11;10.70;99.90
18882;DHT22;9573;50.948;11.600;2023-01-04T17:43:40;10.70;99.90
18882;DHT22;9573;50.948;11.600;2023-01-04T17:46:10;10.80;99.90
18882;DHT22;9573;50.948;11.600;2023-01-04T17:48:39;10.80;99.90
18882;DHT22;9573;50.948;11.600;2023-01-04T17:51:10;10.80;99.90
18882;DHT22;9573;50.948;11.600;2023-01-04T17:53:38;10.80;99.90
18882;DHT22;9573;50.948;11.600;2023-01-04T17:56:08;10.80;99.90
18882;DHT22;9573;50.948;11.600;2023-01-04T17:58:37;10.80;99.90
18882;DHT22;9573;50.948;11.600;2023-01-04T18:01:08;10.80;99.90
18882;DHT22;9573;50.948;11.600;2023-01-04T18:03:37;10.80;99.90
18882;DHT22;9573;50.948;11.600;2023-01-04T18:06:08;10.80;99.90
18882;DHT22;9573;50.948;11.600;2023-01-04T18:08:35;10.80;99.90
18882;DHT22;9573;50.948;11.600;2023-01-04T18:11:03;10.90;99.90
18882;DHT22;9573;50.948;11.600;2023-01-04T18:13:35;10.90;99.90
18882;DHT22;9573;50.948;11.600;2023-01-04T18:16:05;10.90;99.90
18882;DHT22;9573;50.948;11.600;2023-01-04T18:18:33;10.90;99.90
18882;DHT22;9573;50.948;11.600;2023-01-04T18:21:12;10.80;99.90
18882;DHT22;9573;50.948;11.600;2023-01-04T18:23:43;10.80;99.90
18882;DHT22;9573;50.948;11.600;2023-01-04T18:26:10;10.80;99.90
18882;DHT22;9573;50.948;11.600;2023-01-04T18:28:37;10.80;99.90
18882;DHT22;9573;50.948;11.600;2023-01-04T18:31:08;10.90;99.90
18882;DHT22;9573;50.948;11.600;2023-01-04T18:33:36;10.90;99.90
18882;DHT22;9573;50.948;11.600;2023-01-04T18:36:04;10.90;99.90
18882;DHT22;9573;50.948;11.600;2023-01-04T18:38:33;11.00;99.90
18882;DHT22;9573;50.948;11.600;2023-01-04T18:41:03;11.00;99.90
18882;DHT22;9573;50.948;11.600;2023-01-04T18:43:32;11.00;99.90
18882;DHT22;9573;50.948;11.600;2023-01-04T18:46:00;11.00;99.90
18882;DHT22;9573;50.948;11.600;2023-01-04T18:48:28;10.30;99.90
18882;DHT22;9573;50.948;11.600;2023-01-04T18:51:01;11.00;99.90
18882;DHT22;9573;50.948;11.600;2023-01-04T18:53:28;11.00;99.90
18882;DHT22;9573;50.948;11.600;2023-01-04T18:55:57;11.00;99.90
18882;DHT22;9573;50.948;11.600;2023-01-04T18:58:24;11.00;99.90
18882;DHT22;9573;50.948;11.600;2023-01-04T19:00:58;11.00;99.90
18882;DHT22;9573;50.948;11.600;2023-01-04T19:03:26;11.10;99.90
18882;DHT22;9573;50.948;11.600;2023-01-04T19:05:53;11.10;99.90
18882;DHT22;9573;50.948;11.600;2023-01-04T19:08:21;11.10;99.90
18882;DHT22;9573;50.948;11.600;2023-01-04T19:10:48;11.10;99.90
18882;DHT22;9573;50.948;11.600;2023-01-04T19:13:17;11.10;99.90
18882;DHT22;9573;50.948;11.600;2023-01-04T19:15:44;11.10;99.90
18882;DHT22;9573;50.948;11.600;2023-01-04T19:18:11;11.10;99.90
18882;DHT22;9573;50.948;11.600;2023-01-04T19:20:38;11.20;99.90
18882;DHT22;9573;50.948;11.600;2023-01-04T19:23:06;11.20;99.90
18882;DHT22;9573;50.948;11.600;2023-01-04T19:25:33;11.10;99.90
18882;DHT22;9573;50.948;11.600;2023-01-04T19:28:04;11.20;99.90
18882;DHT22;9573;50.948;11.600;2023-01-04T19:30:36;11.20;99.90
18882;DHT22;9573;50.948;11.600;2023-01-04T19:33:04;11.20;99.90
18882;DHT22;9573;50.948;11.600;2023-01-04T19:35:31;11.20;99.90
18882;DHT22;9573;50.948;11.600;2023-01-04T19:37:59;11.20;99.90
18882;DHT22;9573;50.948;11.600;2023-01-04T19:40:29;11.20;99.90
18882;DHT22;9573;50.948;11.600;2023-01-04T19:42:56;11.20;99.90
18882;DHT22;9573;50.948;11.600;2023-01-04T19:45:23;11.30;99.90
18882;DHT22;9573;50.948;11.600;2023-01-04T19:47:52;11.30;99.90
18882;DHT22;9573;50.948;11.600;2023-01-04T19:50:19;11.30;99.90
18882;DHT22;9573;50.948;11.600;2023-01-04T19:52:46;11.30;99.90
18882;DHT22;9573;50.948;11.600;2023-01-04T19:55:13;11.30;99.90
18882;DHT22;9573;50.948;11.600;2023-01-04T19:57:41;11.30;99.90
18882;DHT22;9573;50.948;11.600;2023-01-04T20:00:09;11.40;99.90
18882;DHT22;9573;50.948;11.600;2023-01-04T20:02:37;11.50;99.90
18882;DHT22;9573;50.948;11.600;2023-01-04T20:05:06;11.40;99.90
18882;DHT22;9573;50.948;11.600;2023-01-04T20:07:33;11.40;99.90
18882;DHT22;9573;50.948;11.600;2023-01-04T20:10:00;11.40;99.90
18882;DHT22;9573;50.948;11.600;2023-01-04T20:12:27;11.40;99.90
18882;DHT22;9573;50.948;11.600;2023-01-04T20:14:54;11.50;99.90
18882;DHT22;9573;50.948;11.600;2023-01-04T20:17:22;11.50;99.90
18882;DHT22;9573;50.948;11.600;2023-01-04T20:19:49;11.50;99.90
18882;DHT22;9573;50.948;11.600;2023-01-04T20:22:17;11.50;99.90
18882;DHT22;9573;50.948;11.600;2023-01-04T20:24:44;11.60;99.90
18882;DHT22;9573;50.948;11.600;2023-01-04T20:27:12;11.60;99.90
18882;DHT22;9573;50.948;11.600;2023-01-04T20:29:39;11.70;99.90
18882;DHT22;9573;50.948;11.600;2023-01-04T20:32:06;11.70;99.90
18882;DHT22;9573;50.948;11.600;2023-01-04T20:34:33;11.70;99.90
18882;DHT22;9573;50.948;11.600;2023-01-04T20:37:01;11.70;99.90
18882;DHT22;9573;50.948;11.600;2023-01-04T20:39:30;12.70;99.90
18882;DHT22;9573;50.948;11.600;2023-01-04T20:41:57;11.80;99.90
18882;DHT22;9573;50.948;11.600;2023-01-04T20:44:41;11.80;99.90
18882;DHT22;9573;50.948;11.600;2023-01-04T20:47:08;11.90;99.90
18882;DHT22;9573;50.948;11.600;2023-01-04T20:49:35;11.90;99.90
18882;DHT22;9573;50.948;11.600;2023-01-04T20:52:03;11.90;99.90
18882;DHT22;9573;50.948;11.600;2023-01-04T20:54:34;11.90;99.90
18882;DHT22;9573;50.948;11.600;2023-01-04T20:57:02;12.00;99.90
18882;DHT22;9573;50.948;11.600;2023-01-04T20:59:29;12.00;99.90
